• images/banner/banner1.jpg
  • images/banner/banner2.jpg

Team Member Login

Aviation Weather

[source: ADDS]
METAR
EGVN 172150Z 21011KT 9000 -RA BKN015 BKN040 05/03 Q1001 TEMPO 23015G25KT 7000 BKN014 =
TAF
TAF EGVN 171949Z 1721/1821 23012KT 9999 -RA SCT020 BECMG 1721/1724 25018G33KT TEMPO 1721/1801 5000 RA BKN010 TEMPO 1800/1804 27025G43KT BECMG 1801/1803 NSW FEW025 BECMG 1804/1807 28018G28KT BECMG 1812/1816 27010KT PROB30 TEMPO 1812/1818 -SHRA SCT024 =